Time;durP1;ratioP1;P1;durP2;ratioP2;P2;SDS_P1;SDS_P2;PMS_P1;PMS_P2;Temp;Humidity;BMP_temperature;BMP_pressure;BME280_temperature;BME280_humidity;BME280_pressure;Samples;Min_cycle;Max_cycle;Signal;HPM_P1;HPM_P2
2022/08/31 00:05:48;;;;;;;5.43;1.65;;;23.20;57.70;;;;;;4463368;32;20077;-73
2022/08/31 00:08:15;;;;;;;4.05;1.40;;;23.30;57.80;;;;;;4462948;32;20088;-73
2022/08/31 00:10:44;;;;;;;4.63;1.17;;;23.20;57.70;;;;;;4449065;32;20203;-72
2022/08/31 00:13:11;;;;;;;2.70;1.10;;;23.20;57.70;;;;;;4463014;32;20065;-73
2022/08/31 00:15:37;;;;;;;3.50;1.05;;;23.20;57.70;;;;;;4462599;32;20163;-72
2022/08/31 00:18:04;;;;;;;3.97;1.20;;;23.20;57.70;;;;;;4462865;32;20094;-72
2022/08/31 00:20:30;;;;;;;4.03;1.02;;;23.20;57.70;;;;;;4462533;32;20093;-73
2022/08/31 00:22:56;;;;;;;3.33;1.20;;;23.20;57.70;;;;;;4462618;32;20082;-73
2022/08/31 00:25:22;;;;;;;5.03;1.25;;;23.20;57.70;;;;;;4462747;32;20086;-76
2022/08/31 00:27:49;;;;;;;2.53;0.95;;;23.20;57.70;;;;;;4462789;32;20066;-72
2022/08/31 00:30:15;;;;;;;4.57;1.10;;;23.20;57.70;;;;;;4462453;32;20078;-74
2022/08/31 00:32:41;;;;;;;4.50;1.20;;;23.20;57.70;;;;;;4462868;32;20084;-73
2022/08/31 00:35:07;;;;;;;3.80;1.15;;;23.20;57.70;;;;;;4462334;32;20062;-73
2022/08/31 00:37:33;;;;;;;3.35;1.08;;;23.20;57.70;;;;;;4462580;32;20092;-73
2022/08/31 00:39:59;;;;;;;4.82;1.05;;;23.20;57.70;;;;;;4462769;32;20470;-73
2022/08/31 00:42:25;;;;;;;5.78;1.00;;;23.10;57.60;;;;;;4462051;32;20129;-72
2022/08/31 00:44:51;;;;;;;4.22;0.93;;;23.10;57.60;;;;;;4462685;32;20184;-73
2022/08/31 00:47:17;;;;;;;2.33;1.17;;;23.10;57.60;;;;;;4462156;32;20077;-73
2022/08/31 00:49:49;;;;;;;3.75;1.00;;;23.10;57.60;;;;;;4461293;32;20104;-73
2022/08/31 00:52:23;;;;;;;4.15;1.13;;;23.10;57.60;;;;;;4462558;32;20521;-73
2022/08/31 00:55:06;;;;;;;4.03;1.35;;;23.10;57.60;;;;;;4462719;32;20160;-72
2022/08/31 00:57:35;;;;;;;3.53;1.13;;;23.10;57.60;;;;;;4462859;32;20255;-72
2022/08/31 01:00:06;;;;;;;1.60;0.80;;;23.10;57.60;;;;;;4448316;32;20147;-72
2022/08/31 01:02:32;;;;;;;3.42;1.25;;;23.10;57.60;;;;;;4462607;32;20487;-73
2022/08/31 01:04:58;;;;;;;4.03;1.08;;;23.10;57.60;;;;;;4461956;32;20077;-73
2022/08/31 01:07:24;;;;;;;3.85;1.15;;;23.10;57.60;;;;;;4462407;32;20066;-73
2022/08/31 01:09:50;;;;;;;3.00;1.30;;;23.10;57.60;;;;;;4461878;32;20096;-73
2022/08/31 01:12:17;;;;;;;2.35;0.98;;;23.10;57.60;;;;;;4462318;32;20077;-73
2022/08/31 01:14:43;;;;;;;2.10;1.00;;;23.10;57.60;;;;;;4462013;32;20084;-73
2022/08/31 01:17:09;;;;;;;2.30;0.90;;;23.10;57.60;;;;;;4462083;32;20066;-74
2022/08/31 01:19:46;;;;;;;2.75;0.95;;;23.10;57.60;;;;;;4462242;32;20120;-73
2022/08/31 01:22:34;;;;;;;1.80;0.80;;;23.10;57.60;;;;;;4461852;32;20085;-73
2022/08/31 01:25:00;;;;;;;2.90;0.70;;;23.10;57.60;;;;;;4461656;32;20089;-73
2022/08/31 01:27:30;;;;;;;2.47;0.82;;;23.00;57.60;;;;;;4461833;32;20122;-73
2022/08/31 01:30:02;;;;;;;2.28;0.77;;;23.10;57.60;;;;;;4461947;32;20278;-72
2022/08/31 01:32:28;;;;;;;4.20;0.93;;;23.10;57.60;;;;;;4461459;32;20159;-73
2022/08/31 01:34:53;;;;;;;4.15;0.90;;;23.00;57.50;;;;;;4461719;32;20086;-72
2022/08/31 01:37:19;;;;;;;7.32;1.00;;;23.00;57.60;;;;;;4447669;32;20070;-72
2022/08/31 01:39:45;;;;;;;2.83;0.80;;;23.00;57.60;;;;;;4461754;32;20259;-72
2022/08/31 01:42:11;;;;;;;2.75;0.90;;;23.00;57.50;;;;;;4461064;32;20219;-73
2022/08/31 01:44:37;;;;;;;3.08;0.77;;;23.00;57.50;;;;;;4461880;32;20129;-73
2022/08/31 01:47:03;;;;;;;1.38;0.73;;;23.00;57.50;;;;;;4461549;32;20065;-73
2022/08/31 01:49:28;;;;;;;2.20;0.77;;;23.00;57.50;;;;;;4447528;32;20407;-73
2022/08/31 01:51:54;;;;;;;2.55;0.73;;;23.00;57.50;;;;;;4461459;32;20062;-72
2022/08/31 01:54:22;;;;;;;2.08;0.80;;;23.00;57.50;;;;;;4461128;32;20163;-73
2022/08/31 01:56:48;;;;;;;2.50;0.80;;;23.00;57.50;;;;;;4447482;32;20165;-72
2022/08/31 01:59:17;;;;;;;2.67;0.80;;;23.00;57.50;;;;;;4447520;32;20164;-73
2022/08/31 02:01:46;;;;;;;1.90;0.77;;;23.00;57.50;;;;;;4447499;32;20131;-73
2022/08/31 02:04:13;;;;;;;2.03;0.60;;;23.00;57.50;;;;;;4461551;32;20074;-73
2022/08/31 02:06:43;;;;;;;3.55;0.90;;;23.00;57.60;;;;;;4461494;32;20192;-73
2022/08/31 02:09:09;;;;;;;2.42;0.80;;;22.90;57.50;;;;;;4461308;32;20295;-73
2022/08/31 02:11:35;;;;;;;2.08;0.70;;;22.90;57.50;;;;;;4460946;32;20497;-73
2022/08/31 02:14:02;;;;;;;2.80;0.90;;;22.90;57.50;;;;;;4447212;32;20139;-73
2022/08/31 02:16:28;;;;;;;1.48;0.45;;;22.90;57.50;;;;;;4461168;32;20605;-73
2022/08/31 02:18:53;;;;;;;1.95;0.60;;;22.90;57.50;;;;;;4461104;32;20093;-73
2022/08/31 02:21:19;;;;;;;1.15;0.50;;;22.90;57.50;;;;;;4461160;32;20062;-72
2022/08/31 02:23:45;;;;;;;3.67;0.73;;;22.90;57.50;;;;;;4446854;32;20444;-72
2022/08/31 02:26:11;;;;;;;2.05;0.75;;;22.90;57.50;;;;;;4460973;32;20058;-72
2022/08/31 02:28:39;;;;;;;1.98;0.63;;;22.90;57.60;;;;;;4460735;32;20497;-73
2022/08/31 02:31:05;;;;;;;2.15;0.60;;;22.90;57.60;;;;;;4460939;32;20202;-73
2022/08/31 02:33:31;;;;;;;2.03;0.63;;;22.90;57.60;;;;;;4461175;32;20078;-72
2022/08/31 02:35:57;;;;;;;2.60;0.75;;;22.90;57.60;;;;;;4460531;32;20120;-72
2022/08/31 02:38:23;;;;;;;2.38;0.70;;;22.90;57.60;;;;;;4446885;32;20077;-73
2022/08/31 02:40:50;;;;;;;2.15;0.68;;;22.90;57.60;;;;;;4460814;32;20077;-72
2022/08/31 02:43:16;;;;;;;1.77;0.85;;;22.90;57.60;;;;;;4460270;32;20113;-73
2022/08/31 02:45:41;;;;;;;1.70;0.73;;;22.90;57.60;;;;;;4446627;32;20163;-73
2022/08/31 02:48:08;;;;;;;1.33;0.60;;;22.90;57.60;;;;;;4460519;32;20093;-72
2022/08/31 02:50:43;;;;;;;1.92;0.50;;;22.90;57.60;;;;;;4460794;32;20073;-73
2022/08/31 02:53:11;;;;;;;1.95;0.60;;;22.90;57.60;;;;;;4460745;32;20227;-74
2022/08/31 02:55:37;;;;;;;1.10;0.40;;;22.90;57.60;;;;;;4460627;32;20078;-73
2022/08/31 02:58:04;;;;;;;1.38;0.40;;;22.80;57.60;;;;;;4446406;32;20086;-73
2022/08/31 03:00:31;;;;;;;0.80;0.50;;;22.80;57.50;;;;;;4460648;32;20093;-73
2022/08/31 03:02:57;;;;;;;1.48;0.60;;;22.80;57.50;;;;;;4460494;32;20096;-73
2022/08/31 03:05:23;;;;;;;4.13;0.85;;;22.90;57.60;;;;;;4460763;32;20077;-73
2022/08/31 03:07:49;;;;;;;1.20;0.70;;;22.80;57.50;;;;;;4460292;32;20439;-73
2022/08/31 03:10:16;;;;;;;1.98;0.75;;;22.80;57.60;;;;;;4460540;32;20418;-73
2022/08/31 03:12:42;;;;;;;1.88;0.80;;;22.80;57.60;;;;;;4459803;32;20137;-73
2022/08/31 03:15:09;;;;;;;0.73;0.40;;;22.80;57.60;;;;;;4460488;32;20077;-73
2022/08/31 03:17:35;;;;;;;1.70;0.70;;;22.80;57.60;;;;;;4460497;32;20096;-73
2022/08/31 03:20:04;;;;;;;0.80;0.30;;;22.80;57.60;;;;;;4446247;32;20145;-73
2022/08/31 03:22:31;;;;;;;1.38;0.50;;;22.80;57.60;;;;;;4460288;32;20511;-73
2022/08/31 03:24:57;;;;;;;0.90;0.60;;;22.80;57.60;;;;;;4460389;32;20074;-73
2022/08/31 03:27:23;;;;;;;1.42;0.32;;;22.80;57.60;;;;;;4460605;32;20064;-73
2022/08/31 03:29:50;;;;;;;1.17;0.43;;;22.80;57.60;;;;;;4446381;32;20215;-73
2022/08/31 03:32:17;;;;;;;1.83;0.50;;;22.80;57.60;;;;;;4446376;32;20124;-73
2022/08/31 03:34:43;;;;;;;1.73;0.50;;;22.80;57.70;;;;;;4460307;32;20407;-75
2022/08/31 03:37:08;;;;;;;0.75;0.40;;;22.80;57.70;;;;;;4460543;32;20070;-72
2022/08/31 03:39:34;;;;;;;4.18;0.63;;;22.80;57.70;;;;;;4459995;32;20101;-72
2022/08/31 03:42:00;;;;;;;1.40;0.55;;;22.80;57.60;;;;;;4460200;32;20081;-72
2022/08/31 03:44:26;;;;;;;1.85;0.60;;;22.80;57.60;;;;;;4460100;32;20102;-72
2022/08/31 03:46:54;;;;;;;1.02;0.50;;;22.80;57.70;;;;;;4460242;32;20080;-76
2022/08/31 03:49:21;;;;;;;2.63;0.60;;;22.80;57.70;;;;;;4459986;32;20089;-73
2022/08/31 03:51:47;;;;;;;1.52;0.40;;;22.70;57.60;;;;;;4460150;32;20074;-73
2022/08/31 03:54:13;;;;;;;1.10;0.55;;;22.70;57.60;;;;;;4460195;32;20094;-73
2022/08/31 03:56:40;;;;;;;1.42;0.50;;;22.70;57.70;;;;;;4460162;32;20077;-72
2022/08/31 03:59:06;;;;;;;1.90;0.63;;;22.70;57.70;;;;;;4460213;32;20563;-73
2022/08/31 04:01:34;;;;;;;1.30;0.60;;;22.70;57.70;;;;;;4460097;32;20094;-72
2022/08/31 04:04:00;;;;;;;1.38;0.55;;;22.70;57.70;;;;;;4446114;32;20204;-73
2022/08/31 04:06:26;;;;;;;0.68;0.30;;;22.70;57.70;;;;;;4445850;32;20176;-72
2022/08/31 04:08:52;;;;;;;1.40;0.47;;;22.70;57.70;;;;;;4446094;32;20191;-73
2022/08/31 04:11:18;;;;;;;0.95;0.35;;;22.70;57.70;;;;;;4460080;32;20070;-72
2022/08/31 04:13:44;;;;;;;1.02;0.43;;;22.70;57.70;;;;;;4460039;32;20093;-72
2022/08/31 04:16:13;;;;;;;0.77;0.30;;;22.70;57.70;;;;;;4460016;32;20074;-73
2022/08/31 04:18:41;;;;;;;0.43;0.28;;;22.70;57.70;;;;;;4460016;32;20512;-72
2022/08/31 04:21:26;;;;;;;1.73;0.43;;;22.70;57.70;;;;;;4460299;32;20106;-73
2022/08/31 04:23:53;;;;;;;1.30;0.50;;;22.70;57.70;;;;;;4460312;32;20062;-72
2022/08/31 04:26:23;;;;;;;1.00;0.40;;;22.60;57.70;;;;;;4462836;32;20641;-73
2022/08/31 04:28:49;;;;;;;1.42;0.47;;;22.60;57.70;;;;;;4462712;32;20167;-72
2022/08/31 04:31:19;;;;;;;0.95;0.20;;;22.60;57.70;;;;;;4462893;32;20125;-72
2022/08/31 04:33:45;;;;;;;0.68;0.30;;;22.60;57.70;;;;;;4462930;32;20092;-73
2022/08/31 04:36:14;;;;;;;1.02;0.30;;;22.70;57.80;;;;;;4462753;32;20612;-73
2022/08/31 04:38:45;;;;;;;0.95;0.30;;;22.60;57.70;;;;;;4462601;32;20507;-73
2022/08/31 04:41:12;;;;;;;0.98;0.30;;;22.60;57.70;;;;;;4462800;32;20145;-73
2022/08/31 04:43:42;;;;;;;0.90;0.40;;;22.60;57.70;;;;;;4462304;32;20082;-72
2022/08/31 04:46:07;;;;;;;1.27;0.40;;;22.60;57.70;;;;;;4462223;32;20088;-73
2022/08/31 04:48:34;;;;;;;3.30;0.40;;;22.60;57.70;;;;;;4448241;32;20073;-72
2022/08/31 04:51:05;;;;;;;0.95;0.32;;;22.60;57.70;;;;;;4462207;32;20568;-72
2022/08/31 04:53:32;;;;;;;0.47;0.38;;;22.60;57.70;;;;;;4448476;32;20089;-73
2022/08/31 04:55:58;;;;;;;1.60;0.40;;;22.60;57.80;;;;;;4448145;32;20082;-72
2022/08/31 04:58:24;;;;;;;1.63;0.43;;;22.60;57.80;;;;;;4448159;32;20212;-73
2022/08/31 05:00:51;;;;;;;2.50;0.30;;;22.60;57.80;;;;;;4462587;32;20407;-73
2022/08/31 05:03:18;;;;;;;1.58;0.60;;;22.60;57.80;;;;;;4448191;32;20438;-73
2022/08/31 05:05:49;;;;;;;1.13;0.40;;;22.60;57.80;;;;;;4462229;32;20084;-73
2022/08/31 05:08:15;;;;;;;0.98;0.40;;;22.60;57.80;;;;;;4462505;32;20155;-72
2022/08/31 05:10:41;;;;;;;0.57;0.22;;;22.60;57.80;;;;;;4462133;32;20097;-73
2022/08/31 05:13:07;;;;;;;0.73;0.28;;;22.60;57.90;;;;;;4462346;32;20496;-73
2022/08/31 05:15:38;;;;;;;0.57;0.40;;;22.60;57.80;;;;;;4462301;32;20208;-73
2022/08/31 05:18:05;;;;;;;0.52;0.30;;;22.60;57.80;;;;;;4462147;32;20093;-72
2022/08/31 05:20:30;;;;;;;0.80;0.20;;;22.50;57.80;;;;;;4462077;32;20058;-72
2022/08/31 05:22:56;;;;;;;0.68;0.40;;;22.50;57.80;;;;;;4461811;32;20403;-72
2022/08/31 05:25:22;;;;;;;1.05;0.30;;;22.60;57.80;;;;;;4462200;32;20132;-72
2022/08/31 05:27:48;;;;;;;0.73;0.30;;;22.50;57.80;;;;;;4447686;32;20078;-72
2022/08/31 05:30:14;;;;;;;0.98;0.43;;;22.60;57.80;;;;;;4447619;32;20081;-73
2022/08/31 05:32:40;;;;;;;1.55;0.40;;;22.50;57.80;;;;;;4461815;32;20496;-72
2022/08/31 05:35:06;;;;;;;0.57;0.30;;;22.60;57.90;;;;;;4461130;32;20507;-72
2022/08/31 05:37:32;;;;;;;0.70;0.30;;;22.50;57.90;;;;;;4447814;32;20073;-72
2022/08/31 05:39:58;;;;;;;0.70;0.30;;;22.50;57.80;;;;;;4461963;32;20068;-72
2022/08/31 05:42:23;;;;;;;0.40;0.30;;;22.50;57.90;;;;;;4447395;32;20388;-73
2022/08/31 05:44:49;;;;;;;0.77;0.38;;;22.50;57.90;;;;;;4461664;32;20081;-73
2022/08/31 05:47:15;;;;;;;1.63;0.30;;;22.50;57.90;;;;;;4447589;32;20078;-73
2022/08/31 05:49:42;;;;;;;1.10;0.47;;;22.50;57.90;;;;;;4461337;32;20132;-73
2022/08/31 05:52:08;;;;;;;1.38;0.30;;;22.50;57.90;;;;;;4447514;32;20073;-72
2022/08/31 05:54:35;;;;;;;0.65;0.30;;;22.50;57.90;;;;;;4461474;32;20069;-73
2022/08/31 05:57:02;;;;;;;0.43;0.30;;;22.50;57.90;;;;;;4461472;32;20092;-72
2022/08/31 05:59:30;;;;;;;0.50;0.22;;;22.50;58.00;;;;;;4461402;32;20503;-73
2022/08/31 06:01:56;;;;;;;0.68;0.10;;;22.50;58.00;;;;;;4461046;32;20206;-73
2022/08/31 06:04:22;;;;;;;0.90;0.20;;;22.50;58.00;;;;;;4461400;32;20093;-73
2022/08/31 06:06:48;;;;;;;1.35;0.20;;;22.50;58.00;;;;;;4461146;32;20058;-72
2022/08/31 06:09:14;;;;;;;0.57;0.25;;;22.50;57.90;;;;;;4461311;32;20078;-73
2022/08/31 06:11:41;;;;;;;0.50;0.10;;;22.50;58.90;;;;;;4461034;32;20485;-73
2022/08/31 06:14:08;;;;;;;1.60;0.30;;;22.50;57.90;;;;;;4461233;32;20109;-73
2022/08/31 06:16:35;;;;;;;0.82;0.30;;;22.50;58.00;;;;;;4461206;32;20538;-73
2022/08/31 06:19:06;;;;;;;0.82;0.40;;;22.50;57.90;;;;;;4460921;32;20077;-73
2022/08/31 06:21:37;;;;;;;0.70;0.30;;;22.50;57.90;;;;;;4460945;32;20419;-74
2022/08/31 06:24:04;;;;;;;2.20;0.40;;;22.60;58.00;;;;;;4461224;32;20109;-74
2022/08/31 06:26:33;;;;;;;2.08;0.35;;;22.60;58.00;;;;;;4461030;32;20565;-74
2022/08/31 06:29:02;;;;;;;1.42;0.28;;;22.60;57.70;;;;;;4460731;32;20074;-74
2022/08/31 06:31:37;;;;;;;0.52;0.32;;;22.60;57.50;;;;;;4460975;32;20167;-74
2022/08/31 06:34:05;;;;;;;1.50;0.40;;;22.60;57.40;;;;;;4461037;32;20422;-74
2022/08/31 06:36:32;;;;;;;2.15;0.40;;;22.70;57.30;;;;;;4460902;32;20078;-74
2022/08/31 06:39:00;;;;;;;1.90;0.50;;;22.70;57.20;;;;;;4460846;32;20094;-75
2022/08/31 06:41:28;;;;;;;0.77;0.40;;;22.70;57.20;;;;;;4460847;32;20093;-74
2022/08/31 06:43:54;;;;;;;1.08;0.40;;;22.70;57.00;;;;;;4460896;32;20085;-75
2022/08/31 06:46:22;;;;;;;3.22;0.50;;;22.80;57.10;;;;;;4446656;32;20066;-75
2022/08/31 06:48:49;;;;;;;1.83;0.30;;;22.80;57.10;;;;;;4460432;32;20103;-77
2022/08/31 06:51:16;;;;;;;1.33;0.50;;;22.80;57.10;;;;;;4460718;32;20076;-74
2022/08/31 06:53:42;;;;;;;1.33;0.32;;;22.80;57.00;;;;;;4460852;32;20096;-74
2022/08/31 06:56:14;;;;;;;1.05;0.30;;;22.80;56.90;;;;;;4446821;32;20096;-74
2022/08/31 06:58:40;;;;;;;1.52;0.50;;;22.90;56.90;;;;;;4460947;32;20076;-74
2022/08/31 07:01:12;;;;;;;0.73;0.22;;;22.90;56.80;;;;;;4460651;32;20085;-74
2022/08/31 07:03:42;;;;;;;2.42;0.50;;;22.90;56.70;;;;;;4460578;32;20430;-74
2022/08/31 07:06:24;;;;;;;2.88;0.40;;;22.90;56.70;;;;;;4447536;32;20131;-74
2022/08/31 07:08:51;;;;;;;1.30;0.50;;;22.90;56.70;;;;;;4460668;32;20120;-74
2022/08/31 07:11:22;;;;;;;0.77;0.40;;;22.90;56.70;;;;;;4460254;32;20104;-74
2022/08/31 07:13:48;;;;;;;3.03;0.60;;;22.90;56.70;;;;;;4460402;32;20085;-74
2022/08/31 07:16:17;;;;;;;0.60;0.40;;;23.00;56.70;;;;;;4460573;32;20098;-77
2022/08/31 07:18:43;;;;;;;3.45;0.50;;;23.00;56.60;;;;;;4460676;32;20066;-74
2022/08/31 07:21:17;;;;;;;4.10;0.70;;;23.00;56.60;;;;;;4460394;32;20094;-76
2022/08/31 07:23:44;;;;;;;3.33;0.90;;;23.00;57.50;;;;;;4460274;32;20075;-75
2022/08/31 07:26:15;;;;;;;5.38;0.80;;;23.00;56.70;;;;;;4446362;32;20289;-74
2022/08/31 07:28:51;;;;;;;1.80;0.60;;;23.10;56.70;;;;;;4460762;32;20109;-74
2022/08/31 07:31:21;;;;;;;2.25;0.40;;;23.10;56.60;;;;;;4460614;32;20113;-74
2022/08/31 07:33:52;;;;;;;1.02;0.43;;;23.10;56.40;;;;;;4460457;32;20129;-74
2022/08/31 07:36:18;;;;;;;2.42;0.60;;;23.10;56.20;;;;;;4446484;32;20096;-75
2022/08/31 07:44:17;;;;;;;1.42;0.43;;;23.10;55.80;;;;;;4460377;32;20222;-73
2022/08/31 07:46:44;;;;;;;1.23;0.50;;;23.10;55.60;;;;;;4460260;32;20062;-74
2022/08/31 07:49:13;;;;;;;2.03;0.50;;;23.10;55.40;;;;;;4460237;32;20086;-74
2022/08/31 07:51:49;;;;;;;4.85;0.73;;;23.10;55.40;;;;;;4460383;32;20170;-77
2022/08/31 07:54:22;;;;;;;2.88;0.70;;;23.10;55.30;;;;;;4460319;32;20199;-74
2022/08/31 07:56:52;;;;;;;2.45;0.60;;;23.20;55.50;;;;;;4460250;32;20376;-73
2022/08/31 07:59:20;;;;;;;1.98;0.60;;;23.20;55.60;;;;;;4462463;32;20541;-74
2022/08/31 08:01:47;;;;;;;2.65;0.80;;;23.20;55.60;;;;;;4462918;32;20499;-74
2022/08/31 08:04:24;;;;;;;11.93;1.10;;;23.20;55.60;;;;;;4463082;32;20420;-73
2022/08/31 08:06:54;;;;;;;1.83;0.60;;;23.20;55.60;;;;;;4463143;32;20070;-73
2022/08/31 08:09:25;;;;;;;1.42;0.50;;;23.20;55.70;;;;;;4449612;32;20077;-74
2022/08/31 08:11:56;;;;;;;2.15;0.60;;;23.30;55.70;;;;;;4463077;32;20066;-74
2022/08/31 08:14:26;;;;;;;4.35;0.65;;;23.30;55.70;;;;;;4463205;32;20143;-76
2022/08/31 08:16:53;;;;;;;2.13;0.60;;;23.30;55.60;;;;;;4463091;32;20207;-75
2022/08/31 08:19:19;;;;;;;2.13;0.60;;;23.30;55.60;;;;;;4463289;32;20136;-74
2022/08/31 08:21:46;;;;;;;3.15;0.63;;;23.30;55.70;;;;;;4462520;32;20116;-74
2022/08/31 08:24:14;;;;;;;3.67;0.70;;;23.30;55.60;;;;;;4462681;32;20082;-74
2022/08/31 08:26:48;;;;;;;1.85;0.50;;;23.30;55.60;;;;;;4462831;32;20542;-74
2022/08/31 08:29:16;;;;;;;1.35;0.70;;;23.30;55.50;;;;;;4463107;32;20199;-73
2022/08/31 08:31:42;;;;;;;0.73;0.40;;;23.30;55.60;;;;;;4462476;32;20144;-73
2022/08/31 08:34:09;;;;;;;1.35;0.60;;;23.40;55.60;;;;;;4462789;32;20259;-73
2022/08/31 08:36:36;;;;;;;2.15;0.50;;;23.40;55.60;;;;;;4462453;32;20078;-74
2022/08/31 08:39:08;;;;;;;2.92;0.43;;;23.40;55.60;;;;;;4448661;32;20092;-75
2022/08/31 08:41:37;;;;;;;3.30;0.70;;;23.40;55.40;;;;;;4448163;32;20131;-74
2022/08/31 08:44:08;;;;;;;3.05;0.60;;;23.50;55.30;;;;;;4463061;32;20141;-75
2022/08/31 08:46:57;;;;;;;1.75;0.60;;;23.50;55.10;;;;;;4462638;32;20065;-74
2022/08/31 08:49:52;;;;;;;3.88;0.60;;;23.50;54.90;;;;;;4462484;32;20078;-75
2022/08/31 08:52:51;;;;;;;2.75;0.30;;;23.60;54.80;;;;;;4462444;32;20498;-75
2022/08/31 08:55:21;;;;;;;1.42;0.50;;;23.60;54.70;;;;;;4427988;32;20140;-75
2022/08/31 08:57:50;;;;;;;1.75;0.50;;;23.60;54.50;;;;;;4448318;32;20260;-74
2022/08/31 09:00:20;;;;;;;1.35;0.40;;;23.70;54.50;;;;;;4448684;32;20088;-74
2022/08/31 09:03:02;;;;;;;2.33;0.50;;;23.70;54.20;;;;;;4462375;32;20435;-76
2022/08/31 09:05:37;;;;;;;2.65;0.73;;;23.70;54.00;;;;;;4462382;32;20113;-76
2022/08/31 09:08:22;;;;;;;1.75;0.40;;;23.80;53.90;;;;;;4462179;32;20081;-75
2022/08/31 09:11:34;;;;;;;1.00;0.40;;;23.80;53.80;;;;;;4461407;32;20524;-75
2022/08/31 09:14:18;;;;;;;4.18;0.40;;;23.80;53.40;;;;;;4462588;32;20088;-75
2022/08/31 09:17:08;;;;;;;0.73;0.50;;;23.80;53.40;;;;;;4461948;32;20089;-75
2022/08/31 09:19:57;;;;;;;1.70;0.50;;;23.90;53.20;;;;;;4448063;32;20102;-77
2022/08/31 09:22:21;;;;;;;1.90;0.40;;;23.90;53.10;;;;;;4462021;32;20514;-75
2022/08/31 09:24:51;;;;;;;0.63;0.40;;;23.90;53.10;;;;;;4461971;32;20105;-75
2022/08/31 09:27:35;;;;;;;1.20;0.55;;;24.00;53.00;;;;;;4461644;32;20070;-77
2022/08/31 09:30:04;;;;;;;1.85;0.50;;;24.00;52.90;;;;;;4461863;32;20377;-74
2022/08/31 09:32:34;;;;;;;7.80;0.63;;;24.00;52.80;;;;;;4461861;32;20086;-73
2022/08/31 09:35:22;;;;;;;2.78;0.60;;;24.00;52.60;;;;;;4462045;32;20395;-74
2022/08/31 09:38:05;;;;;;;3.63;0.68;;;24.00;52.40;;;;;;4462081;32;20113;-73
2022/08/31 09:40:47;;;;;;;1.97;0.60;;;24.10;52.10;;;;;;4461606;32;20070;-74
2022/08/31 09:43:28;;;;;;;2.83;0.55;;;24.10;52.00;;;;;;4461535;32;20658;-76
2022/08/31 09:45:57;;;;;;;1.35;0.55;;;24.20;51.40;;;;;;4462083;32;20090;-74
2022/08/31 09:48:50;;;;;;;3.10;0.57;;;24.20;51.50;;;;;;4461560;32;20114;-75
2022/08/31 09:51:29;;;;;;;2.70;0.40;;;24.20;50.80;;;;;;4461664;32;20069;-74
2022/08/31 09:56:54;;;;;;;3.00;0.47;;;24.20;50.90;;;;;;4461677;32;20402;-75
2022/08/31 09:59:38;;;;;;;0.90;0.38;;;24.20;50.70;;;;;;4461452;32;20086;-76
2022/08/31 10:02:25;;;;;;;4.47;0.90;;;24.20;50.50;;;;;;4461230;32;20058;-75
2022/08/31 10:04:57;;;;;;;2.40;0.57;;;24.20;50.50;;;;;;4461755;32;20088;-74
2022/08/31 10:07:36;;;;;;;0.82;0.45;;;24.20;50.40;;;;;;4461340;32;20625;-78
2022/08/31 10:10:23;;;;;;;1.08;0.40;;;24.20;50.30;;;;;;4461702;32;20070;-76
2022/08/31 10:12:59;;;;;;;2.83;0.70;;;24.20;50.30;;;;;;4461595;32;20518;-75
2022/08/31 10:15:27;;;;;;;2.70;0.40;;;24.20;50.10;;;;;;4461360;32;20085;-74
2022/08/31 10:18:15;;;;;;;1.10;0.43;;;24.20;50.10;;;;;;4461739;32;20096;-75
2022/08/31 10:21:25;;;;;;;0.60;0.40;;;24.20;49.90;;;;;;4461102;32;20219;-76
2022/08/31 10:23:58;;;;;;;1.40;0.50;;;24.20;49.90;;;;;;4397629;32;20504;-75
2022/08/31 10:26:35;;;;;;;1.42;0.40;;;24.20;49.80;;;;;;4398237;32;20137;-75
2022/08/31 10:29:44;;;;;;;1.17;0.47;;;24.20;49.80;;;;;;4437630;32;20231;-75
2022/08/31 10:32:22;;;;;;;1.08;0.50;;;24.20;49.50;;;;;;4452868;32;20223;-75
2022/08/31 10:35:04;;;;;;;3.42;0.60;;;24.20;49.50;;;;;;4460857;32;20582;-76
2022/08/31 10:37:37;;;;;;;2.40;0.52;;;24.20;49.40;;;;;;4461049;32;20607;-75
2022/08/31 10:40:22;;;;;;;2.43;0.40;;;24.20;49.10;;;;;;4460936;32;20175;-74
2022/08/31 10:43:12;;;;;;;1.08;0.50;;;24.20;48.90;;;;;;4446369;32;20243;-74
2022/08/31 10:45:42;;;;;;;0.60;0.40;;;24.20;49.10;;;;;;4460453;32;20439;-74
2022/08/31 10:48:11;;;;;;;2.47;0.60;;;24.20;48.80;;;;;;4446511;32;20596;-74
2022/08/31 10:51:04;;;;;;;2.13;0.50;;;24.20;48.70;;;;;;4460746;32;20283;-74
2022/08/31 10:53:39;;;;;;;1.02;0.40;;;24.20;48.80;;;;;;4460438;32;20070;-73
2022/08/31 10:56:57;;;;;;;1.20;0.40;;;24.20;49.00;;;;;;4460909;32;20092;-73
2022/08/31 10:59:47;;;;;;;1.95;0.30;;;24.20;48.90;;;;;;4457544;32;20112;-73
2022/08/31 11:02:38;;;;;;;0.98;0.38;;;24.20;48.90;;;;;;4460964;32;20081;-73
2022/08/31 11:05:21;;;;;;;2.25;0.40;;;24.20;48.90;;;;;;4460376;32;20097;-75
2022/08/31 11:08:44;;;;;;;2.67;0.30;;;24.20;48.90;;;;;;4460910;32;20124;-74
2022/08/31 11:11:18;;;;;;;3.17;0.50;;;24.20;49.00;;;;;;4448897;32;20093;-76
2022/08/31 11:14:08;;;;;;;1.85;0.70;;;24.10;49.10;;;;;;4460691;32;20065;-74
2022/08/31 11:16:40;;;;;;;2.15;0.63;;;24.10;49.20;;;;;;4459902;32;20373;-74
2022/08/31 11:19:12;;;;;;;3.10;0.50;;;24.10;49.30;;;;;;4460590;32;20519;-73
2022/08/31 11:21:49;;;;;;;1.63;0.40;;;24.10;49.30;;;;;;4460704;32;20140;-73
2022/08/31 11:24:37;;;;;;;0.75;0.30;;;24.10;49.30;;;;;;4460700;32;20423;-74
2022/08/31 11:27:17;;;;;;;1.10;0.38;;;24.10;49.50;;;;;;4460832;32;20491;-73
2022/08/31 11:29:55;;;;;;;1.77;0.43;;;24.10;49.30;;;;;;4460519;32;20184;-73
2022/08/31 11:32:39;;;;;;;1.00;0.52;;;24.10;49.40;;;;;;4461009;32;20120;-73
2022/08/31 11:35:09;;;;;;;1.98;0.40;;;24.10;49.40;;;;;;4463799;32;20113;-73
2022/08/31 11:37:50;;;;;;;1.80;0.63;;;24.10;49.40;;;;;;4449755;32;20294;-73
2022/08/31 11:40:40;;;;;;;1.10;0.30;;;24.10;49.20;;;;;;4463756;32;20077;-72
2022/08/31 11:43:07;;;;;;;0.52;0.32;;;24.10;48.90;;;;;;4463228;32;20078;-73
2022/08/31 11:45:36;;;;;;;2.55;0.40;;;24.10;49.00;;;;;;4463067;32;20081;-78
2022/08/31 11:48:05;;;;;;;0.93;0.30;;;24.10;49.00;;;;;;4463448;32;20080;-72
2022/08/31 11:51:06;;;;;;;1.17;0.30;;;24.10;48.90;;;;;;4463388;32;20100;-73
2022/08/31 11:53:42;;;;;;;3.30;0.40;;;24.10;48.70;;;;;;4463532;32;20094;-72
2022/08/31 11:56:10;;;;;;;5.03;0.50;;;24.10;49.60;;;;;;4463317;32;20121;-72
2022/08/31 11:58:38;;;;;;;2.15;0.70;;;24.10;48.70;;;;;;4463262;32;20082;-73
2022/08/31 12:01:11;;;;;;;2.85;0.40;;;24.10;48.80;;;;;;4463558;32;20109;-72
2022/08/31 12:03:40;;;;;;;2.17;0.45;;;24.10;49.00;;;;;;4463095;32;20092;-73
2022/08/31 12:06:10;;;;;;;3.00;0.45;;;24.10;49.00;;;;;;4462867;32;20168;-73
2022/08/31 12:08:53;;;;;;;2.60;0.50;;;24.10;49.00;;;;;;4463023;32;20491;-74
2022/08/31 12:11:39;;;;;;;1.77;0.50;;;24.10;49.20;;;;;;4463219;32;20487;-74
2022/08/31 12:14:05;;;;;;;2.08;0.50;;;24.10;49.10;;;;;;4463228;32;20164;-75
2022/08/31 12:16:37;;;;;;;1.92;0.40;;;24.10;49.30;;;;;;4463280;32;20480;-74
2022/08/31 12:19:12;;;;;;;0.57;0.40;;;24.10;49.40;;;;;;4448938;32;20159;-74
2022/08/31 12:25:04;;;;;;;4.75;0.40;;;24.10;49.20;;;;;;4463147;32;20081;-74
2022/08/31 12:28:08;;;;;;;1.90;0.50;;;24.10;49.10;;;;;;4462758;32;20376;-75
2022/08/31 12:30:34;;;;;;;1.55;0.45;;;24.20;49.30;;;;;;4462745;32;20093;-75
2022/08/31 12:33:15;;;;;;;1.40;0.52;;;24.20;49.40;;;;;;4448811;32;20084;-74
2022/08/31 12:35:42;;;;;;;1.30;0.40;;;24.20;49.40;;;;;;4463149;32;20158;-74
2022/08/31 12:38:15;;;;;;;4.50;0.60;;;24.20;49.40;;;;;;4462559;32;20098;-73
2022/08/31 12:40:40;;;;;;;3.75;0.47;;;24.20;49.20;;;;;;4462439;32;20134;-74
2022/08/31 12:43:16;;;;;;;2.80;0.40;;;24.20;49.20;;;;;;4462262;32;20089;-74
2022/08/31 12:46:00;;;;;;;3.67;0.60;;;24.20;49.00;;;;;;4461861;32;20219;-74
2022/08/31 12:48:41;;;;;;;1.30;0.32;;;24.20;48.90;;;;;;4462983;32;20404;-74
2022/08/31 12:51:44;;;;;;;1.38;0.55;;;24.20;49.00;;;;;;4462676;32;20511;-75
2022/08/31 12:54:14;;;;;;;1.08;0.40;;;24.20;49.00;;;;;;4398940;32;20398;-75
2022/08/31 12:57:02;;;;;;;0.40;0.30;;;24.20;49.10;;;;;;4440805;32;20295;-75
2022/08/31 12:59:49;;;;;;;4.22;0.50;;;24.20;49.00;;;;;;4462087;32;20101;-75
2022/08/31 13:02:15;;;;;;;2.42;0.65;;;24.30;49.10;;;;;;4462456;32;20525;-74
2022/08/31 13:04:43;;;;;;;2.35;0.50;;;24.30;49.10;;;;;;4462104;32;20073;-75
2022/08/31 13:07:31;;;;;;;1.77;0.43;;;24.30;49.10;;;;;;4462251;32;20092;-76
2022/08/31 13:10:09;;;;;;;0.63;0.30;;;24.30;49.10;;;;;;4462249;32;20069;-76
2022/08/31 13:12:36;;;;;;;0.98;0.32;;;24.30;49.10;;;;;;4448176;32;20499;-75
2022/08/31 13:15:04;;;;;;;4.15;0.50;;;24.30;49.30;;;;;;4461714;32;20093;-75
2022/08/31 13:17:36;;;;;;;1.05;0.40;;;24.30;49.30;;;;;;4461720;32;20090;-74
2022/08/31 13:20:03;;;;;;;1.27;0.30;;;24.30;49.30;;;;;;4462610;32;20065;-74
2022/08/31 13:22:39;;;;;;;1.85;0.40;;;24.30;50.10;;;;;;4461950;32;20074;-74
2022/08/31 13:25:12;;;;;;;1.75;0.40;;;24.30;49.40;;;;;;4462173;32;20302;-73
2022/08/31 13:27:48;;;;;;;2.50;0.40;;;24.40;49.40;;;;;;4462091;32;20117;-75